sensor_id;sensor_type;location;lat;lon;timestamp;temperature;humidity
21033;DHT22;10675;47.976;7.824;2023-02-01T00:00:13;5.90;99.90
21033;DHT22;10675;47.976;7.824;2023-02-01T00:02:39;5.90;99.90
21033;DHT22;10675;47.976;7.824;2023-02-01T00:05:07;5.90;99.90
21033;DHT22;10675;47.976;7.824;2023-02-01T00:07:34;5.90;99.90
21033;DHT22;10675;47.976;7.824;2023-02-01T00:09:59;5.90;99.90
21033;DHT22;10675;47.976;7.824;2023-02-01T00:12:25;5.90;99.90
21033;DHT22;10675;47.976;7.824;2023-02-01T00:14:50;5.80;99.90
21033;DHT22;10675;47.976;7.824;2023-02-01T00:17:16;5.80;99.90
21033;DHT22;10675;47.976;7.824;2023-02-01T00:19:41;5.80;99.90
21033;DHT22;10675;47.976;7.824;2023-02-01T00:22:07;5.80;99.90
21033;DHT22;10675;47.976;7.824;2023-02-01T00:24:32;5.80;99.90
21033;DHT22;10675;47.976;7.824;2023-02-01T00:26:58;5.80;99.90
21033;DHT22;10675;47.976;7.824;2023-02-01T00:29:23;5.70;99.90
21033;DHT22;10675;47.976;7.824;2023-02-01T00:31:50;5.80;99.90
21033;DHT22;10675;47.976;7.824;2023-02-01T00:34:17;5.70;99.90
21033;DHT22;10675;47.976;7.824;2023-02-01T00:36:44;5.80;99.90
21033;DHT22;10675;47.976;7.824;2023-02-01T00:39:11;5.70;99.90
21033;DHT22;10675;47.976;7.824;2023-02-01T00:41:36;5.80;99.90
21033;DHT22;10675;47.976;7.824;2023-02-01T00:44:02;5.70;99.90
21033;DHT22;10675;47.976;7.824;2023-02-01T00:46:28;5.70;99.90
21033;DHT22;10675;47.976;7.824;2023-02-01T00:48:54;5.70;99.90
21033;DHT22;10675;47.976;7.824;2023-02-01T00:51:22;5.70;99.90
21033;DHT22;10675;47.976;7.824;2023-02-01T00:53:48;5.70;99.90
21033;DHT22;10675;47.976;7.824;2023-02-01T00:56:14;5.70;99.90
21033;DHT22;10675;47.976;7.824;2023-02-01T00:58:40;5.70;99.90
21033;DHT22;10675;47.976;7.824;2023-02-01T01:01:14;5.70;99.90
21033;DHT22;10675;47.976;7.824;2023-02-01T01:03:42;5.80;99.90
21033;DHT22;10675;47.976;7.824;2023-02-01T01:06:14;5.80;99.90
21033;DHT22;10675;47.976;7.824;2023-02-01T01:08:41;5.70;99.90
21033;DHT22;10675;47.976;7.824;2023-02-01T01:11:15;5.70;99.90
21033;DHT22;10675;47.976;7.824;2023-02-01T01:13:41;5.70;99.90
21033;DHT22;10675;47.976;7.824;2023-02-01T01:16:09;5.70;99.90
21033;DHT22;10675;47.976;7.824;2023-02-01T01:18:36;5.60;99.90
21033;DHT22;10675;47.976;7.824;2023-02-01T01:21:06;5.60;99.90
21033;DHT22;10675;47.976;7.824;2023-02-01T01:23:32;5.60;99.90
21033;DHT22;10675;47.976;7.824;2023-02-01T01:25:58;5.60;99.90
21033;DHT22;10675;47.976;7.824;2023-02-01T01:28:23;5.60;99.90
21033;DHT22;10675;47.976;7.824;2023-02-01T01:30:49;5.60;99.90
21033;DHT22;10675;47.976;7.824;2023-02-01T01:33:14;5.60;99.90
21033;DHT22;10675;47.976;7.824;2023-02-01T01:35:41;5.50;99.90
21033;DHT22;10675;47.976;7.824;2023-02-01T01:38:08;5.50;99.90
21033;DHT22;10675;47.976;7.824;2023-02-01T01:40:34;5.50;99.90
21033;DHT22;10675;47.976;7.824;2023-02-01T01:43:00;5.50;99.90
21033;DHT22;10675;47.976;7.824;2023-02-01T01:45:30;5.50;99.90
21033;DHT22;10675;47.976;7.824;2023-02-01T01:48:11;5.50;99.90
21033;DHT22;10675;47.976;7.824;2023-02-01T01:50:44;5.50;99.90
21033;DHT22;10675;47.976;7.824;2023-02-01T01:53:16;5.50;99.90
21033;DHT22;10675;47.976;7.824;2023-02-01T01:55:44;5.50;99.90
21033;DHT22;10675;47.976;7.824;2023-02-01T01:58:13;5.50;99.90
21033;DHT22;10675;47.976;7.824;2023-02-01T02:00:40;5.50;99.90
21033;DHT22;10675;47.976;7.824;2023-02-01T02:03:22;5.50;99.90
21033;DHT22;10675;47.976;7.824;2023-02-01T02:05:50;5.50;99.90
21033;DHT22;10675;47.976;7.824;2023-02-01T02:08:18;5.50;99.90
21033;DHT22;10675;47.976;7.824;2023-02-01T02:10:48;5.50;99.90
21033;DHT22;10675;47.976;7.824;2023-02-01T02:13:38;5.60;99.90
21033;DHT22;10675;47.976;7.824;2023-02-01T02:16:09;5.60;99.90
21033;DHT22;10675;47.976;7.824;2023-02-01T02:18:45;5.50;99.90
21033;DHT22;10675;47.976;7.824;2023-02-01T02:32:53;5.50;99.90
21033;DHT22;10675;47.976;7.824;2023-02-01T02:38:32;5.40;99.90
21033;DHT22;10675;47.976;7.824;2023-02-01T02:43:43;5.40;99.90
21033;DHT22;10675;47.976;7.824;2023-02-01T02:46:36;5.40;99.90
21033;DHT22;10675;47.976;7.824;2023-02-01T02:49:26;5.50;99.90
21033;DHT22;10675;47.976;7.824;2023-02-01T02:52:16;5.50;99.90
21033;DHT22;10675;47.976;7.824;2023-02-01T02:55:05;5.50;99.90
21033;DHT22;10675;47.976;7.824;2023-02-01T02:57:39;5.50;99.90
21033;DHT22;10675;47.976;7.824;2023-02-01T03:00:28;5.50;99.90
21033;DHT22;10675;47.976;7.824;2023-02-01T03:03:13;5.50;99.90
21033;DHT22;10675;47.976;7.824;2023-02-01T03:05:57;5.50;99.90
21033;DHT22;10675;47.976;7.824;2023-02-01T03:08:25;5.50;99.90
21033;DHT22;10675;47.976;7.824;2023-02-01T03:11:10;5.50;99.90
21033;DHT22;10675;47.976;7.824;2023-02-01T03:13:54;5.40;99.90
21033;DHT22;10675;47.976;7.824;2023-02-01T03:16:26;5.50;99.90
21033;DHT22;10675;47.976;7.824;2023-02-01T03:21:43;5.50;99.90
21033;DHT22;10675;47.976;7.824;2023-02-01T03:24:21;5.50;99.90
21033;DHT22;10675;47.976;7.824;2023-02-01T03:26:54;5.40;99.90
21033;DHT22;10675;47.976;7.824;2023-02-01T03:29:38;5.40;99.90
21033;DHT22;10675;47.976;7.824;2023-02-01T03:32:05;5.40;99.90
21033;DHT22;10675;47.976;7.824;2023-02-01T03:34:31;5.40;99.90
21033;DHT22;10675;47.976;7.824;2023-02-01T03:37:02;5.40;99.90
21033;DHT22;10675;47.976;7.824;2023-02-01T03:39:33;5.30;99.90
21033;DHT22;10675;47.976;7.824;2023-02-01T03:42:03;5.30;99.90
21033;DHT22;10675;47.976;7.824;2023-02-01T03:44:34;5.30;99.90
21033;DHT22;10675;47.976;7.824;2023-02-01T03:47:08;5.20;99.90
21033;DHT22;10675;47.976;7.824;2023-02-01T03:49:35;5.20;99.90
21033;DHT22;10675;47.976;7.824;2023-02-01T03:52:03;5.20;99.90
21033;DHT22;10675;47.976;7.824;2023-02-01T03:54:30;5.10;99.90
21033;DHT22;10675;47.976;7.824;2023-02-01T03:57:00;5.10;99.90
21033;DHT22;10675;47.976;7.824;2023-02-01T03:59:27;5.00;99.90
21033;DHT22;10675;47.976;7.824;2023-02-01T04:01:53;5.00;99.90
21033;DHT22;10675;47.976;7.824;2023-02-01T04:04:18;5.00;99.90
21033;DHT22;10675;47.976;7.824;2023-02-01T04:06:48;5.00;99.90
21033;DHT22;10675;47.976;7.824;2023-02-01T04:09:15;5.00;99.90
21033;DHT22;10675;47.976;7.824;2023-02-01T04:11:40;5.00;99.90
21033;DHT22;10675;47.976;7.824;2023-02-01T04:14:06;5.00;99.90
21033;DHT22;10675;47.976;7.824;2023-02-01T04:16:32;5.00;99.90
21033;DHT22;10675;47.976;7.824;2023-02-01T04:18:58;4.90;99.90
21033;DHT22;10675;47.976;7.824;2023-02-01T04:21:25;4.90;99.90
21033;DHT22;10675;47.976;7.824;2023-02-01T04:23:50;4.90;99.90
21033;DHT22;10675;47.976;7.824;2023-02-01T04:26:16;4.90;99.90
21033;DHT22;10675;47.976;7.824;2023-02-01T04:28:42;4.90;99.90
21033;DHT22;10675;47.976;7.824;2023-02-01T04:31:07;4.90;99.90
21033;DHT22;10675;47.976;7.824;2023-02-01T04:33:33;4.90;99.90
21033;DHT22;10675;47.976;7.824;2023-02-01T04:35:58;4.90;99.90
21033;DHT22;10675;47.976;7.824;2023-02-01T04:38:24;4.80;99.90
21033;DHT22;10675;47.976;7.824;2023-02-01T04:40:49;5.30;99.90
21033;DHT22;10675;47.976;7.824;2023-02-01T04:43:16;5.20;99.90
21033;DHT22;10675;47.976;7.824;2023-02-01T04:45:46;5.30;99.90
21033;DHT22;10675;47.976;7.824;2023-02-01T04:48:12;5.40;99.90
21033;DHT22;10675;47.976;7.824;2023-02-01T04:50:37;5.30;99.90
21033;DHT22;10675;47.976;7.824;2023-02-01T04:53:03;5.20;99.90
21033;DHT22;10675;47.976;7.824;2023-02-01T04:55:29;5.10;99.90
21033;DHT22;10675;47.976;7.824;2023-02-01T04:57:54;4.90;99.90
21033;DHT22;10675;47.976;7.824;2023-02-01T05:00:20;4.80;99.90
21033;DHT22;10675;47.976;7.824;2023-02-01T05:02:46;4.80;99.90
21033;DHT22;10675;47.976;7.824;2023-02-01T05:05:11;4.90;99.90
21033;DHT22;10675;47.976;7.824;2023-02-01T05:07:37;4.90;99.90
21033;DHT22;10675;47.976;7.824;2023-02-01T05:10:02;4.90;99.90
21033;DHT22;10675;47.976;7.824;2023-02-01T05:12:29;4.90;99.90
21033;DHT22;10675;47.976;7.824;2023-02-01T05:15:13;4.90;99.90
21033;DHT22;10675;47.976;7.824;2023-02-01T05:17:39;4.90;99.90
21033;DHT22;10675;47.976;7.824;2023-02-01T05:20:06;4.90;99.90
21033;DHT22;10675;47.976;7.824;2023-02-01T05:22:32;4.90;99.90
21033;DHT22;10675;47.976;7.824;2023-02-01T05:24:57;4.90;99.90
21033;DHT22;10675;47.976;7.824;2023-02-01T05:27:23;4.90;99.90
21033;DHT22;10675;47.976;7.824;2023-02-01T05:29:49;4.90;99.90
21033;DHT22;10675;47.976;7.824;2023-02-01T05:32:14;4.80;99.90
21033;DHT22;10675;47.976;7.824;2023-02-01T05:34:40;4.80;99.90
21033;DHT22;10675;47.976;7.824;2023-02-01T05:37:05;4.80;99.90
21033;DHT22;10675;47.976;7.824;2023-02-01T05:39:31;4.80;99.90
21033;DHT22;10675;47.976;7.824;2023-02-01T05:41:56;4.80;99.90
21033;DHT22;10675;47.976;7.824;2023-02-01T05:44:22;4.80;99.90
21033;DHT22;10675;47.976;7.824;2023-02-01T05:46:47;4.80;99.90
21033;DHT22;10675;47.976;7.824;2023-02-01T05:49:13;4.80;99.90
21033;DHT22;10675;47.976;7.824;2023-02-01T05:51:38;4.70;99.90
21033;DHT22;10675;47.976;7.824;2023-02-01T05:54:04;4.70;99.90
21033;DHT22;10675;47.976;7.824;2023-02-01T05:56:29;4.70;99.90
21033;DHT22;10675;47.976;7.824;2023-02-01T05:58:55;4.70;99.90
21033;DHT22;10675;47.976;7.824;2023-02-01T06:01:20;4.70;99.90
21033;DHT22;10675;47.976;7.824;2023-02-01T06:03:46;4.70;99.90
21033;DHT22;10675;47.976;7.824;2023-02-01T06:06:11;4.70;99.90
21033;DHT22;10675;47.976;7.824;2023-02-01T06:08:37;4.70;99.90
21033;DHT22;10675;47.976;7.824;2023-02-01T06:11:05;4.70;99.90
21033;DHT22;10675;47.976;7.824;2023-02-01T06:13:32;4.70;99.90
21033;DHT22;10675;47.976;7.824;2023-02-01T06:15:57;4.80;99.90
21033;DHT22;10675;47.976;7.824;2023-02-01T06:18:26;4.80;99.90
21033;DHT22;10675;47.976;7.824;2023-02-01T06:20:56;4.80;99.90
21033;DHT22;10675;47.976;7.824;2023-02-01T06:23:22;4.80;99.90
21033;DHT22;10675;47.976;7.824;2023-02-01T06:25:52;4.80;99.90
21033;DHT22;10675;47.976;7.824;2023-02-01T06:28:18;4.70;99.90
21033;DHT22;10675;47.976;7.824;2023-02-01T06:30:44;4.70;99.90
21033;DHT22;10675;47.976;7.824;2023-02-01T06:33:13;4.70;99.90
21033;DHT22;10675;47.976;7.824;2023-02-01T06:35:40;4.70;99.90
21033;DHT22;10675;47.976;7.824;2023-02-01T06:38:07;4.70;99.90
21033;DHT22;10675;47.976;7.824;2023-02-01T06:40:33;4.70;99.90
21033;DHT22;10675;47.976;7.824;2023-02-01T06:42:58;4.70;99.90
21033;DHT22;10675;47.976;7.824;2023-02-01T06:45:24;4.70;99.90
21033;DHT22;10675;47.976;7.824;2023-02-01T06:47:49;4.80;99.90
21033;DHT22;10675;47.976;7.824;2023-02-01T06:50:15;4.80;99.90
21033;DHT22;10675;47.976;7.824;2023-02-01T06:52:40;4.80;99.90
21033;DHT22;10675;47.976;7.824;2023-02-01T06:55:06;4.80;99.90
21033;DHT22;10675;47.976;7.824;2023-02-01T06:57:32;4.80;99.90
21033;DHT22;10675;47.976;7.824;2023-02-01T06:59:59;4.80;99.90
21033;DHT22;10675;47.976;7.824;2023-02-01T07:02:25;4.80;99.90
21033;DHT22;10675;47.976;7.824;2023-02-01T07:04:50;4.80;99.90
21033;DHT22;10675;47.976;7.824;2023-02-01T07:07:16;4.80;99.90
21033;DHT22;10675;47.976;7.824;2023-02-01T07:09:42;4.90;99.90
21033;DHT22;10675;47.976;7.824;2023-02-01T07:12:07;4.90;99.90
21033;DHT22;10675;47.976;7.824;2023-02-01T07:14:33;4.90;99.90
21033;DHT22;10675;47.976;7.824;2023-02-01T07:16:58;5.00;99.90
21033;DHT22;10675;47.976;7.824;2023-02-01T07:19:24;5.00;99.90
21033;DHT22;10675;47.976;7.824;2023-02-01T07:21:49;5.00;99.90
21033;DHT22;10675;47.976;7.824;2023-02-01T07:24:15;5.00;99.90
21033;DHT22;10675;47.976;7.824;2023-02-01T07:26:40;5.10;99.90
21033;DHT22;10675;47.976;7.824;2023-02-01T07:29:06;5.10;99.90
21033;DHT22;10675;47.976;7.824;2023-02-01T07:31:31;5.10;99.90
21033;DHT22;10675;47.976;7.824;2023-02-01T07:33:57;5.10;99.90
21033;DHT22;10675;47.976;7.824;2023-02-01T07:36:23;5.10;99.90
21033;DHT22;10675;47.976;7.824;2023-02-01T07:38:49;5.10;99.90
21033;DHT22;10675;47.976;7.824;2023-02-01T07:41:16;5.10;99.90
21033;DHT22;10675;47.976;7.824;2023-02-01T07:43:41;5.10;99.90
21033;DHT22;10675;47.976;7.824;2023-02-01T07:46:09;5.00;99.90
21033;DHT22;10675;47.976;7.824;2023-02-01T07:48:35;5.00;99.90
21033;DHT22;10675;47.976;7.824;2023-02-01T07:53:32;5.10;99.90
21033;DHT22;10675;47.976;7.824;2023-02-01T07:55:58;5.10;99.90
21033;DHT22;10675;47.976;7.824;2023-02-01T07:58:25;5.00;99.90
21033;DHT22;10675;47.976;7.824;2023-02-01T08:00:51;5.10;99.90
21033;DHT22;10675;47.976;7.824;2023-02-01T08:03:36;5.10;99.90
21033;DHT22;10675;47.976;7.824;2023-02-01T08:06:01;5.10;99.90
21033;DHT22;10675;47.976;7.824;2023-02-01T08:08:27;5.10;99.90
21033;DHT22;10675;47.976;7.824;2023-02-01T08:10:58;5.20;99.90
21033;DHT22;10675;47.976;7.824;2023-02-01T08:13:23;5.20;99.90
21033;DHT22;10675;47.976;7.824;2023-02-01T08:15:49;5.20;99.90
21033;DHT22;10675;47.976;7.824;2023-02-01T08:18:14;5.30;99.90
21033;DHT22;10675;47.976;7.824;2023-02-01T08:20:43;5.40;99.90
21033;DHT22;10675;47.976;7.824;2023-02-01T08:23:11;5.40;99.90
21033;DHT22;10675;47.976;7.824;2023-02-01T08:25:36;5.40;99.90
21033;DHT22;10675;47.976;7.824;2023-02-01T08:28:03;5.40;99.90
21033;DHT22;10675;47.976;7.824;2023-02-01T08:30:28;5.50;99.90
21033;DHT22;10675;47.976;7.824;2023-02-01T08:32:54;5.50;99.90
21033;DHT22;10675;47.976;7.824;2023-02-01T08:35:19;5.60;99.90
21033;DHT22;10675;47.976;7.824;2023-02-01T08:37:45;5.60;99.90
21033;DHT22;10675;47.976;7.824;2023-02-01T08:40:11;5.60;99.90
21033;DHT22;10675;47.976;7.824;2023-02-01T08:42:36;5.50;99.90
21033;DHT22;10675;47.976;7.824;2023-02-01T08:45:18;5.60;99.90
21033;DHT22;10675;47.976;7.824;2023-02-01T08:47:45;5.50;99.90
21033;DHT22;10675;47.976;7.824;2023-02-01T08:50:12;5.50;99.90
21033;DHT22;10675;47.976;7.824;2023-02-01T08:52:38;5.50;99.90
21033;DHT22;10675;47.976;7.824;2023-02-01T08:55:04;5.50;99.90
21033;DHT22;10675;47.976;7.824;2023-02-01T08:57:30;5.50;99.90
21033;DHT22;10675;47.976;7.824;2023-02-01T08:59:56;5.50;99.90
21033;DHT22;10675;47.976;7.824;2023-02-01T09:02:22;5.40;99.90
21033;DHT22;10675;47.976;7.824;2023-02-01T09:04:47;5.40;99.90
21033;DHT22;10675;47.976;7.824;2023-02-01T09:07:13;5.50;99.90
21033;DHT22;10675;47.976;7.824;2023-02-01T09:09:38;5.50;99.90
21033;DHT22;10675;47.976;7.824;2023-02-01T09:12:04;5.50;99.90
21033;DHT22;10675;47.976;7.824;2023-02-01T09:14:30;5.50;99.90
21033;DHT22;10675;47.976;7.824;2023-02-01T09:16:56;5.50;99.90
21033;DHT22;10675;47.976;7.824;2023-02-01T09:19:21;5.50;99.90
21033;DHT22;10675;47.976;7.824;2023-02-01T09:21:47;5.50;99.90
21033;DHT22;10675;47.976;7.824;2023-02-01T09:24:13;5.60;99.90
21033;DHT22;10675;47.976;7.824;2023-02-01T09:26:39;5.60;99.90
21033;DHT22;10675;47.976;7.824;2023-02-01T09:29:04;5.60;99.90
21033;DHT22;10675;47.976;7.824;2023-02-01T09:31:35;5.70;99.90
21033;DHT22;10675;47.976;7.824;2023-02-01T09:34:01;5.70;99.90
21033;DHT22;10675;47.976;7.824;2023-02-01T09:36:27;5.70;99.90
21033;DHT22;10675;47.976;7.824;2023-02-01T09:38:53;5.80;99.90
21033;DHT22;10675;47.976;7.824;2023-02-01T09:44:12;6.00;99.90
21033;DHT22;10675;47.976;7.824;2023-02-01T09:46:40;6.20;99.90
21033;DHT22;10675;47.976;7.824;2023-02-01T09:49:22;6.20;99.90
21033;DHT22;10675;47.976;7.824;2023-02-01T09:51:51;6.20;99.90
21033;DHT22;10675;47.976;7.824;2023-02-01T09:54:22;6.20;99.90
21033;DHT22;10675;47.976;7.824;2023-02-01T09:56:52;6.40;99.90
21033;DHT22;10675;47.976;7.824;2023-02-01T09:59:38;6.40;99.90
21033;DHT22;10675;47.976;7.824;2023-02-01T10:02:15;6.50;99.90
21033;DHT22;10675;47.976;7.824;2023-02-01T10:04:42;6.50;99.90
21033;DHT22;10675;47.976;7.824;2023-02-01T10:07:48;6.40;99.90
21033;DHT22;10675;47.976;7.824;2023-02-01T10:10:28;6.40;99.90
21033;DHT22;10675;47.976;7.824;2023-02-01T10:15:56;6.40;99.90
21033;DHT22;10675;47.976;7.824;2023-02-01T10:18:29;6.40;99.90
21033;DHT22;10675;47.976;7.824;2023-02-01T10:21:05;6.50;99.90
21033;DHT22;10675;47.976;7.824;2023-02-01T10:26:33;6.40;99.90
21033;DHT22;10675;47.976;7.824;2023-02-01T10:29:03;6.50;99.90
21033;DHT22;10675;47.976;7.824;2023-02-01T10:31:33;6.50;99.90
21033;DHT22;10675;47.976;7.824;2023-02-01T10:34:24;6.50;99.90
21033;DHT22;10675;47.976;7.824;2023-02-01T10:39:44;6.40;99.90
21033;DHT22;10675;47.976;7.824;2023-02-01T10:42:11;6.50;99.90
21033;DHT22;10675;47.976;7.824;2023-02-01T10:44:42;6.50;99.90
21033;DHT22;10675;47.976;7.824;2023-02-01T10:47:10;6.50;99.90
21033;DHT22;10675;47.976;7.824;2023-02-01T10:49:47;6.50;99.90
21033;DHT22;10675;47.976;7.824;2023-02-01T10:52:18;6.60;99.90
21033;DHT22;10675;47.976;7.824;2023-02-01T10:54:45;6.70;99.90
21033;DHT22;10675;47.976;7.824;2023-02-01T10:57:23;6.70;99.90
21033;DHT22;10675;47.976;7.824;2023-02-01T10:59:55;6.70;99.90
21033;DHT22;10675;47.976;7.824;2023-02-01T11:02:31;6.80;99.90
21033;DHT22;10675;47.976;7.824;2023-02-01T11:05:05;6.80;99.90
21033;DHT22;10675;47.976;7.824;2023-02-01T11:07:34;6.80;99.90
21033;DHT22;10675;47.976;7.824;2023-02-01T11:10:00;6.70;99.90
21033;DHT22;10675;47.976;7.824;2023-02-01T11:12:32;6.70;99.90
21033;DHT22;10675;47.976;7.824;2023-02-01T11:15:14;6.80;99.90
21033;DHT22;10675;47.976;7.824;2023-02-01T11:17:45;7.00;99.90
21033;DHT22;10675;47.976;7.824;2023-02-01T11:20:19;7.10;99.90
21033;DHT22;10675;47.976;7.824;2023-02-01T11:22:53;7.10;99.90
21033;DHT22;10675;47.976;7.824;2023-02-01T11:25:19;7.10;99.90
21033;DHT22;10675;47.976;7.824;2023-02-01T11:27:47;7.30;99.90
21033;DHT22;10675;47.976;7.824;2023-02-01T11:30:16;7.40;99.90
21033;DHT22;10675;47.976;7.824;2023-02-01T11:32:47;7.50;99.90
21033;DHT22;10675;47.976;7.824;2023-02-01T11:35:17;7.60;99.90
21033;DHT22;10675;47.976;7.824;2023-02-01T11:37:50;7.40;99.90
21033;DHT22;10675;47.976;7.824;2023-02-01T11:43:00;7.80;99.90
21033;DHT22;10675;47.976;7.824;2023-02-01T11:45:32;7.80;99.90
21033;DHT22;10675;47.976;7.824;2023-02-01T11:48:08;7.70;99.90
21033;DHT22;10675;47.976;7.824;2023-02-01T11:50:46;7.80;99.90
21033;DHT22;10675;47.976;7.824;2023-02-01T11:56:19;7.70;99.90
21033;DHT22;10675;47.976;7.824;2023-02-01T11:59:02;7.60;99.90
21033;DHT22;10675;47.976;7.824;2023-02-01T12:01:39;7.70;99.90
21033;DHT22;10675;47.976;7.824;2023-02-01T12:07:19;7.70;99.90
21033;DHT22;10675;47.976;7.824;2023-02-01T12:12:56;7.60;99.90
21033;DHT22;10675;47.976;7.824;2023-02-01T12:21:04;7.80;99.90
21033;DHT22;10675;47.976;7.824;2023-02-01T12:23:52;7.80;99.90
21033;DHT22;10675;47.976;7.824;2023-02-01T12:29:31;7.70;99.90
21033;DHT22;10675;47.976;7.824;2023-02-01T12:40:21;7.30;99.90
21033;DHT22;10675;47.976;7.824;2023-02-01T12:43:03;7.40;99.90
21033;DHT22;10675;47.976;7.824;2023-02-01T12:45:40;7.40;99.90
21033;DHT22;10675;47.976;7.824;2023-02-01T12:50:59;7.30;99.90
21033;DHT22;10675;47.976;7.824;2023-02-01T12:54:31;7.30;99.90
21033;DHT22;10675;47.976;7.824;2023-02-01T12:56:53;7.30;99.90
21033;DHT22;10675;47.976;7.824;2023-02-01T12:59:24;7.30;99.90
21033;DHT22;10675;47.976;7.824;2023-02-01T13:01:56;7.30;99.90
21033;DHT22;10675;47.976;7.824;2023-02-01T13:04:38;7.30;99.90
21033;DHT22;10675;47.976;7.824;2023-02-01T13:07:14;7.20;99.90
21033;DHT22;10675;47.976;7.824;2023-02-01T13:09:44;7.20;99.90
21033;DHT22;10675;47.976;7.824;2023-02-01T13:12:17;7.30;99.90
21033;DHT22;10675;47.976;7.824;2023-02-01T13:17:31;7.10;99.90
21033;DHT22;10675;47.976;7.824;2023-02-01T13:20:13;7.20;99.90
21033;DHT22;10675;47.976;7.824;2023-02-01T13:22:50;7.30;99.90
21033;DHT22;10675;47.976;7.824;2023-02-01T13:25:37;7.20;99.90
21033;DHT22;10675;47.976;7.824;2023-02-01T13:28:11;7.30;99.90
21033;DHT22;10675;47.976;7.824;2023-02-01T13:33:22;7.30;99.90
21033;DHT22;10675;47.976;7.824;2023-02-01T13:36:17;7.20;99.90
21033;DHT22;10675;47.976;7.824;2023-02-01T13:39:17;7.20;99.90
21033;DHT22;10675;47.976;7.824;2023-02-01T13:42:02;7.20;99.90
21033;DHT22;10675;47.976;7.824;2023-02-01T13:44:36;7.10;99.90
21033;DHT22;10675;47.976;7.824;2023-02-01T13:47:31;7.10;99.90
21033;DHT22;10675;47.976;7.824;2023-02-01T13:50:04;7.10;99.90
21033;DHT22;10675;47.976;7.824;2023-02-01T13:52:40;7.20;99.90
21033;DHT22;10675;47.976;7.824;2023-02-01T13:57:48;7.10;99.90
21033;DHT22;10675;47.976;7.824;2023-02-01T14:13:30;7.10;99.90
21033;DHT22;10675;47.976;7.824;2023-02-01T14:26:47;7.00;99.90
21033;DHT22;10675;47.976;7.824;2023-02-01T14:34:24;6.90;99.90
21033;DHT22;10675;47.976;7.824;2023-02-01T14:39:57;6.80;99.90
21033;DHT22;10675;47.976;7.824;2023-02-01T14:55:43;8.80;99.90
21033;DHT22;10675;47.976;7.824;2023-02-01T15:01:29;7.10;99.90
21033;DHT22;10675;47.976;7.824;2023-02-01T15:04:00;6.90;99.90
21033;DHT22;10675;47.976;7.824;2023-02-01T15:06:31;6.80;99.90
21033;DHT22;10675;47.976;7.824;2023-02-01T15:09:04;6.80;99.90
21033;DHT22;10675;47.976;7.824;2023-02-01T15:11:53;6.70;99.90
21033;DHT22;10675;47.976;7.824;2023-02-01T15:14:19;6.70;99.90
21033;DHT22;10675;47.976;7.824;2023-02-01T15:16:44;6.70;99.90
21033;DHT22;10675;47.976;7.824;2023-02-01T15:19:15;6.70;99.90
21033;DHT22;10675;47.976;7.824;2023-02-01T15:21:49;6.70;99.90
21033;DHT22;10675;47.976;7.824;2023-02-01T15:24:20;6.70;99.90
21033;DHT22;10675;47.976;7.824;2023-02-01T15:26:46;6.70;99.90
21033;DHT22;10675;47.976;7.824;2023-02-01T15:29:13;6.70;99.90
21033;DHT22;10675;47.976;7.824;2023-02-01T15:31:48;6.70;99.90
21033;DHT22;10675;47.976;7.824;2023-02-01T15:34:15;6.70;99.90
21033;DHT22;10675;47.976;7.824;2023-02-01T15:36:41;6.70;99.90
21033;DHT22;10675;47.976;7.824;2023-02-01T15:39:14;6.70;99.90
21033;DHT22;10675;47.976;7.824;2023-02-01T15:41:51;6.60;99.90
21033;DHT22;10675;47.976;7.824;2023-02-01T15:44:34;6.70;99.90
21033;DHT22;10675;47.976;7.824;2023-02-01T15:47:08;6.70;99.90
21033;DHT22;10675;47.976;7.824;2023-02-01T15:49:39;6.70;99.90
21033;DHT22;10675;47.976;7.824;2023-02-01T15:55:00;6.70;99.90
21033;DHT22;10675;47.976;7.824;2023-02-01T15:57:31;6.70;99.90
21033;DHT22;10675;47.976;7.824;2023-02-01T16:00:03;6.70;99.90
21033;DHT22;10675;47.976;7.824;2023-02-01T16:02:33;6.70;99.90
21033;DHT22;10675;47.976;7.824;2023-02-01T16:05:01;6.70;99.90
21033;DHT22;10675;47.976;7.824;2023-02-01T16:07:30;6.70;99.90
21033;DHT22;10675;47.976;7.824;2023-02-01T16:09:58;6.70;99.90
21033;DHT22;10675;47.976;7.824;2023-02-01T16:12:32;6.70;99.90
21033;DHT22;10675;47.976;7.824;2023-02-01T16:15:00;6.70;99.90
21033;DHT22;10675;47.976;7.824;2023-02-01T16:17:25;6.80;99.90
21033;DHT22;10675;47.976;7.824;2023-02-01T16:19:51;6.80;99.90
21033;DHT22;10675;47.976;7.824;2023-02-01T16:22:17;6.70;99.90
21033;DHT22;10675;47.976;7.824;2023-02-01T16:24:42;6.70;99.90
21033;DHT22;10675;47.976;7.824;2023-02-01T16:27:08;6.70;99.90
21033;DHT22;10675;47.976;7.824;2023-02-01T16:29:34;6.70;99.90
21033;DHT22;10675;47.976;7.824;2023-02-01T16:31:59;6.60;99.90
21033;DHT22;10675;47.976;7.824;2023-02-01T16:34:25;6.60;99.90
21033;DHT22;10675;47.976;7.824;2023-02-01T16:36:51;6.60;99.90
21033;DHT22;10675;47.976;7.824;2023-02-01T16:39:19;6.50;99.90
21033;DHT22;10675;47.976;7.824;2023-02-01T16:41:44;6.50;99.90
21033;DHT22;10675;47.976;7.824;2023-02-01T16:44:13;6.40;99.90
21033;DHT22;10675;47.976;7.824;2023-02-01T16:46:40;6.50;99.90
21033;DHT22;10675;47.976;7.824;2023-02-01T16:49:18;6.40;99.90
21033;DHT22;10675;47.976;7.824;2023-02-01T16:51:44;6.40;99.90
21033;DHT22;10675;47.976;7.824;2023-02-01T16:54:10;6.40;99.90
21033;DHT22;10675;47.976;7.824;2023-02-01T16:56:36;6.40;99.90
21033;DHT22;10675;47.976;7.824;2023-02-01T16:59:02;6.40;99.90
21033;DHT22;10675;47.976;7.824;2023-02-01T17:01:28;6.40;99.90
21033;DHT22;10675;47.976;7.824;2023-02-01T17:03:54;6.40;99.90
21033;DHT22;10675;47.976;7.824;2023-02-01T17:06:22;6.50;99.90
21033;DHT22;10675;47.976;7.824;2023-02-01T17:08:54;6.50;99.90
21033;DHT22;10675;47.976;7.824;2023-02-01T17:11:20;6.50;99.90
21033;DHT22;10675;47.976;7.824;2023-02-01T17:13:45;6.60;99.90
21033;DHT22;10675;47.976;7.824;2023-02-01T17:16:22;6.60;99.90
21033;DHT22;10675;47.976;7.824;2023-02-01T17:19:03;6.60;99.90
21033;DHT22;10675;47.976;7.824;2023-02-01T17:21:38;6.60;99.90
21033;DHT22;10675;47.976;7.824;2023-02-01T17:24:05;6.60;99.90
21033;DHT22;10675;47.976;7.824;2023-02-01T17:26:30;6.60;99.90
21033;DHT22;10675;47.976;7.824;2023-02-01T17:28:56;6.60;99.90
21033;DHT22;10675;47.976;7.824;2023-02-01T17:31:22;6.60;99.90
21033;DHT22;10675;47.976;7.824;2023-02-01T17:33:49;6.60;99.90
21033;DHT22;10675;47.976;7.824;2023-02-01T17:36:16;6.60;99.90
21033;DHT22;10675;47.976;7.824;2023-02-01T17:38:42;6.50;99.90
21033;DHT22;10675;47.976;7.824;2023-02-01T17:41:10;6.50;99.90
21033;DHT22;10675;47.976;7.824;2023-02-01T17:43:36;6.60;99.90
21033;DHT22;10675;47.976;7.824;2023-02-01T17:46:09;6.50;99.90
21033;DHT22;10675;47.976;7.824;2023-02-01T17:48:35;6.50;99.90
21033;DHT22;10675;47.976;7.824;2023-02-01T17:51:00;6.50;99.90
21033;DHT22;10675;47.976;7.824;2023-02-01T17:53:27;6.50;99.90
21033;DHT22;10675;47.976;7.824;2023-02-01T17:55:54;6.50;99.90
21033;DHT22;10675;47.976;7.824;2023-02-01T17:58:22;6.50;99.90
21033;DHT22;10675;47.976;7.824;2023-02-01T18:00:48;6.40;99.90
21033;DHT22;10675;47.976;7.824;2023-02-01T18:03:23;6.40;99.90
21033;DHT22;10675;47.976;7.824;2023-02-01T18:05:50;6.40;99.90